sensor_id;sensor_type;location;lat;lon;timestamp;P1;durP1;ratioP1;P2;durP2;ratioP2
5493;SDS011;2769;49.864;8.656;2023-03-01T00:00:04;14.93;;;8.80;;
5493;SDS011;2769;49.864;8.656;2023-03-01T00:02:36;13.03;;;9.23;;
5493;SDS011;2769;49.864;8.656;2023-03-01T00:05:05;13.77;;;8.40;;
5493;SDS011;2769;49.864;8.656;2023-03-01T00:07:33;14.37;;;8.97;;
5493;SDS011;2769;49.864;8.656;2023-03-01T00:10:01;13.73;;;9.00;;
5493;SDS011;2769;49.864;8.656;2023-03-01T00:12:32;12.40;;;8.40;;
5493;SDS011;2769;49.864;8.656;2023-03-01T00:15:00;17.13;;;10.73;;
5493;SDS011;2769;49.864;8.656;2023-03-01T00:17:27;15.67;;;9.70;;
5493;SDS011;2769;49.864;8.656;2023-03-01T00:19:56;14.93;;;9.23;;
5493;SDS011;2769;49.864;8.656;2023-03-01T00:22:23;13.80;;;8.67;;
5493;SDS011;2769;49.864;8.656;2023-03-01T00:24:51;15.33;;;10.10;;
5493;SDS011;2769;49.864;8.656;2023-03-01T00:27:19;14.70;;;8.77;;
5493;SDS011;2769;49.864;8.656;2023-03-01T00:29:48;18.00;;;10.00;;
5493;SDS011;2769;49.864;8.656;2023-03-01T00:32:16;16.20;;;9.00;;
5493;SDS011;2769;49.864;8.656;2023-03-01T00:34:45;16.73;;;9.60;;
5493;SDS011;2769;49.864;8.656;2023-03-01T00:37:20;17.13;;;9.70;;
5493;SDS011;2769;49.864;8.656;2023-03-01T00:39:49;17.50;;;9.33;;
5493;SDS011;2769;49.864;8.656;2023-03-01T00:42:17;14.47;;;9.23;;
5493;SDS011;2769;49.864;8.656;2023-03-01T00:44:45;14.53;;;9.00;;
5493;SDS011;2769;49.864;8.656;2023-03-01T00:47:14;15.27;;;9.50;;
5493;SDS011;2769;49.864;8.656;2023-03-01T00:49:42;15.60;;;9.30;;
5493;SDS011;2769;49.864;8.656;2023-03-01T00:52:10;14.07;;;9.07;;
5493;SDS011;2769;49.864;8.656;2023-03-01T00:54:38;19.43;;;8.90;;
5493;SDS011;2769;49.864;8.656;2023-03-01T00:57:07;15.00;;;9.50;;
5493;SDS011;2769;49.864;8.656;2023-03-01T00:59:35;14.17;;;9.90;;
5493;SDS011;2769;49.864;8.656;2023-03-01T01:02:03;15.10;;;9.30;;
5493;SDS011;2769;49.864;8.656;2023-03-01T01:04:32;16.70;;;9.50;;
5493;SDS011;2769;49.864;8.656;2023-03-01T01:07:00;14.90;;;8.80;;
5493;SDS011;2769;49.864;8.656;2023-03-01T01:09:27;17.73;;;9.33;;
5493;SDS011;2769;49.864;8.656;2023-03-01T01:11:55;16.93;;;10.10;;
5493;SDS011;2769;49.864;8.656;2023-03-01T01:14:23;15.00;;;9.20;;
5493;SDS011;2769;49.864;8.656;2023-03-01T01:16:51;13.10;;;9.13;;
5493;SDS011;2769;49.864;8.656;2023-03-01T01:19:19;15.63;;;10.53;;
5493;SDS011;2769;49.864;8.656;2023-03-01T01:21:48;14.30;;;9.83;;
5493;SDS011;2769;49.864;8.656;2023-03-01T01:24:17;13.47;;;9.60;;
5493;SDS011;2769;49.864;8.656;2023-03-01T01:26:45;15.83;;;9.80;;
5493;SDS011;2769;49.864;8.656;2023-03-01T01:29:13;14.33;;;8.97;;
5493;SDS011;2769;49.864;8.656;2023-03-01T01:31:42;14.17;;;9.40;;
5493;SDS011;2769;49.864;8.656;2023-03-01T01:34:12;16.60;;;10.07;;
5493;SDS011;2769;49.864;8.656;2023-03-01T01:36:41;12.97;;;9.10;;
5493;SDS011;2769;49.864;8.656;2023-03-01T01:39:11;14.53;;;9.30;;
5493;SDS011;2769;49.864;8.656;2023-03-01T01:41:40;20.50;;;10.03;;
5493;SDS011;2769;49.864;8.656;2023-03-01T01:44:10;17.60;;;10.80;;
5493;SDS011;2769;49.864;8.656;2023-03-01T01:46:41;14.87;;;9.50;;
5493;SDS011;2769;49.864;8.656;2023-03-01T01:49:15;15.17;;;9.47;;
5493;SDS011;2769;49.864;8.656;2023-03-01T01:51:47;17.30;;;10.70;;
5493;SDS011;2769;49.864;8.656;2023-03-01T01:54:18;18.67;;;9.17;;
5493;SDS011;2769;49.864;8.656;2023-03-01T01:56:49;15.00;;;9.20;;
5493;SDS011;2769;49.864;8.656;2023-03-01T01:59:20;16.60;;;10.73;;
5493;SDS011;2769;49.864;8.656;2023-03-01T02:01:51;16.30;;;10.40;;
5493;SDS011;2769;49.864;8.656;2023-03-01T02:04:19;16.57;;;10.57;;
5493;SDS011;2769;49.864;8.656;2023-03-01T02:06:48;17.40;;;9.60;;
5493;SDS011;2769;49.864;8.656;2023-03-01T02:09:19;17.43;;;9.80;;
5493;SDS011;2769;49.864;8.656;2023-03-01T02:11:48;15.40;;;10.70;;
5493;SDS011;2769;49.864;8.656;2023-03-01T02:14:16;16.07;;;9.77;;
5493;SDS011;2769;49.864;8.656;2023-03-01T02:16:44;15.33;;;9.80;;
5493;SDS011;2769;49.864;8.656;2023-03-01T02:19:13;15.47;;;9.73;;
5493;SDS011;2769;49.864;8.656;2023-03-01T02:22:00;20.83;;;10.47;;
5493;SDS011;2769;49.864;8.656;2023-03-01T02:24:36;14.17;;;9.23;;
5493;SDS011;2769;49.864;8.656;2023-03-01T02:27:09;15.50;;;9.70;;
5493;SDS011;2769;49.864;8.656;2023-03-01T02:29:39;13.13;;;9.60;;
5493;SDS011;2769;49.864;8.656;2023-03-01T02:32:13;16.60;;;9.97;;
5493;SDS011;2769;49.864;8.656;2023-03-01T02:34:41;18.00;;;9.90;;
5493;SDS011;2769;49.864;8.656;2023-03-01T02:37:13;17.97;;;9.80;;
5493;SDS011;2769;49.864;8.656;2023-03-01T02:39:47;16.50;;;9.43;;
5493;SDS011;2769;49.864;8.656;2023-03-01T02:42:18;16.93;;;9.50;;
5493;SDS011;2769;49.864;8.656;2023-03-01T02:44:53;16.53;;;10.40;;
5493;SDS011;2769;49.864;8.656;2023-03-01T02:47:21;14.70;;;9.70;;
5493;SDS011;2769;49.864;8.656;2023-03-01T02:49:50;17.90;;;10.23;;
5493;SDS011;2769;49.864;8.656;2023-03-01T02:52:27;17.10;;;10.37;;
5493;SDS011;2769;49.864;8.656;2023-03-01T02:55:03;15.70;;;10.37;;
5493;SDS011;2769;49.864;8.656;2023-03-01T02:57:33;16.90;;;9.73;;
5493;SDS011;2769;49.864;8.656;2023-03-01T03:00:05;17.70;;;11.00;;
5493;SDS011;2769;49.864;8.656;2023-03-01T03:02:36;18.37;;;10.83;;
5493;SDS011;2769;49.864;8.656;2023-03-01T03:05:14;15.57;;;9.67;;
5493;SDS011;2769;49.864;8.656;2023-03-01T03:07:44;20.63;;;9.83;;
5493;SDS011;2769;49.864;8.656;2023-03-01T03:10:14;17.43;;;10.67;;
5493;SDS011;2769;49.864;8.656;2023-03-01T03:12:43;16.67;;;10.70;;
5493;SDS011;2769;49.864;8.656;2023-03-01T03:15:12;14.40;;;9.53;;
5493;SDS011;2769;49.864;8.656;2023-03-01T03:17:40;14.90;;;9.90;;
5493;SDS011;2769;49.864;8.656;2023-03-01T03:20:13;16.30;;;10.27;;
5493;SDS011;2769;49.864;8.656;2023-03-01T03:22:45;19.23;;;10.90;;
5493;SDS011;2769;49.864;8.656;2023-03-01T03:25:14;16.93;;;10.00;;
5493;SDS011;2769;49.864;8.656;2023-03-01T03:27:43;18.30;;;10.77;;
5493;SDS011;2769;49.864;8.656;2023-03-01T03:30:14;14.60;;;9.53;;
5493;SDS011;2769;49.864;8.656;2023-03-01T03:32:43;17.97;;;10.27;;
5493;SDS011;2769;49.864;8.656;2023-03-01T03:35:18;20.13;;;10.37;;
5493;SDS011;2769;49.864;8.656;2023-03-01T03:37:47;19.03;;;10.33;;
5493;SDS011;2769;49.864;8.656;2023-03-01T03:40:33;17.70;;;10.23;;
5493;SDS011;2769;49.864;8.656;2023-03-01T03:43:02;19.67;;;10.73;;
5493;SDS011;2769;49.864;8.656;2023-03-01T03:45:31;19.93;;;10.10;;
5493;SDS011;2769;49.864;8.656;2023-03-01T03:48:00;15.20;;;10.87;;
5493;SDS011;2769;49.864;8.656;2023-03-01T03:50:28;18.67;;;10.63;;
5493;SDS011;2769;49.864;8.656;2023-03-01T03:52:56;19.33;;;10.10;;
5493;SDS011;2769;49.864;8.656;2023-03-01T03:55:24;18.03;;;10.50;;
5493;SDS011;2769;49.864;8.656;2023-03-01T03:57:57;17.77;;;10.80;;
5493;SDS011;2769;49.864;8.656;2023-03-01T04:00:28;17.90;;;10.97;;
5493;SDS011;2769;49.864;8.656;2023-03-01T04:02:57;15.80;;;10.40;;
5493;SDS011;2769;49.864;8.656;2023-03-01T04:05:26;16.80;;;10.37;;
5493;SDS011;2769;49.864;8.656;2023-03-01T04:07:54;19.17;;;10.27;;
5493;SDS011;2769;49.864;8.656;2023-03-01T04:10:28;18.17;;;11.00;;
5493;SDS011;2769;49.864;8.656;2023-03-01T04:13:00;18.50;;;10.40;;
5493;SDS011;2769;49.864;8.656;2023-03-01T04:15:28;17.70;;;10.30;;
5493;SDS011;2769;49.864;8.656;2023-03-01T04:17:57;21.43;;;11.37;;
5493;SDS011;2769;49.864;8.656;2023-03-01T04:20:27;16.80;;;10.00;;
5493;SDS011;2769;49.864;8.656;2023-03-01T04:23:00;18.37;;;10.47;;
5493;SDS011;2769;49.864;8.656;2023-03-01T04:25:37;21.90;;;10.80;;
5493;SDS011;2769;49.864;8.656;2023-03-01T04:28:06;16.70;;;10.07;;
5493;SDS011;2769;49.864;8.656;2023-03-01T04:30:34;15.63;;;9.70;;
5493;SDS011;2769;49.864;8.656;2023-03-01T04:33:05;18.83;;;11.67;;
5493;SDS011;2769;49.864;8.656;2023-03-01T04:35:34;18.67;;;9.87;;
5493;SDS011;2769;49.864;8.656;2023-03-01T04:38:03;17.00;;;10.63;;
5493;SDS011;2769;49.864;8.656;2023-03-01T04:40:31;19.57;;;11.00;;
5493;SDS011;2769;49.864;8.656;2023-03-01T04:42:59;19.30;;;11.57;;
5493;SDS011;2769;49.864;8.656;2023-03-01T04:45:27;19.50;;;11.63;;
5493;SDS011;2769;49.864;8.656;2023-03-01T04:47:55;19.50;;;11.40;;
5493;SDS011;2769;49.864;8.656;2023-03-01T04:50:26;18.00;;;10.87;;
5493;SDS011;2769;49.864;8.656;2023-03-01T04:52:53;18.10;;;11.20;;
5493;SDS011;2769;49.864;8.656;2023-03-01T04:55:25;21.10;;;11.10;;
5493;SDS011;2769;49.864;8.656;2023-03-01T04:57:53;19.93;;;11.63;;
5493;SDS011;2769;49.864;8.656;2023-03-01T05:00:22;20.17;;;11.50;;
5493;SDS011;2769;49.864;8.656;2023-03-01T05:02:51;19.53;;;11.77;;
5493;SDS011;2769;49.864;8.656;2023-03-01T05:05:24;18.17;;;11.10;;
5493;SDS011;2769;49.864;8.656;2023-03-01T05:07:55;22.27;;;12.03;;
5493;SDS011;2769;49.864;8.656;2023-03-01T05:10:24;22.20;;;11.10;;
5493;SDS011;2769;49.864;8.656;2023-03-01T05:12:53;18.60;;;10.50;;
5493;SDS011;2769;49.864;8.656;2023-03-01T05:15:20;21.83;;;12.80;;
5493;SDS011;2769;49.864;8.656;2023-03-01T05:17:52;18.53;;;11.23;;
5493;SDS011;2769;49.864;8.656;2023-03-01T05:20:20;20.10;;;11.90;;
5493;SDS011;2769;49.864;8.656;2023-03-01T05:22:52;23.03;;;11.97;;
5493;SDS011;2769;49.864;8.656;2023-03-01T05:25:27;20.40;;;11.70;;
5493;SDS011;2769;49.864;8.656;2023-03-01T05:27:59;24.70;;;12.20;;
5493;SDS011;2769;49.864;8.656;2023-03-01T05:30:31;22.83;;;10.93;;
5493;SDS011;2769;49.864;8.656;2023-03-01T05:32:59;19.60;;;11.60;;
5493;SDS011;2769;49.864;8.656;2023-03-01T05:35:27;17.20;;;10.77;;
5493;SDS011;2769;49.864;8.656;2023-03-01T05:38:00;21.93;;;12.60;;
5493;SDS011;2769;49.864;8.656;2023-03-01T05:40:28;19.07;;;11.80;;
5493;SDS011;2769;49.864;8.656;2023-03-01T05:42:56;22.00;;;12.07;;
5493;SDS011;2769;49.864;8.656;2023-03-01T05:45:25;19.70;;;12.00;;
5493;SDS011;2769;49.864;8.656;2023-03-01T05:47:54;22.20;;;12.30;;
5493;SDS011;2769;49.864;8.656;2023-03-01T05:50:22;22.73;;;11.50;;
5493;SDS011;2769;49.864;8.656;2023-03-01T05:52:54;19.07;;;11.93;;
5493;SDS011;2769;49.864;8.656;2023-03-01T05:55:26;22.67;;;12.47;;
5493;SDS011;2769;49.864;8.656;2023-03-01T05:57:54;20.43;;;12.30;;
5493;SDS011;2769;49.864;8.656;2023-03-01T06:00:23;25.23;;;13.00;;
5493;SDS011;2769;49.864;8.656;2023-03-01T06:02:51;18.57;;;11.77;;
5493;SDS011;2769;49.864;8.656;2023-03-01T06:05:22;23.70;;;12.03;;
5493;SDS011;2769;49.864;8.656;2023-03-01T06:07:50;19.97;;;11.60;;
5493;SDS011;2769;49.864;8.656;2023-03-01T06:10:19;19.70;;;11.73;;
5493;SDS011;2769;49.864;8.656;2023-03-01T06:12:50;21.33;;;11.43;;
5493;SDS011;2769;49.864;8.656;2023-03-01T06:15:19;22.27;;;12.50;;
5493;SDS011;2769;49.864;8.656;2023-03-01T06:17:47;23.60;;;12.37;;
5493;SDS011;2769;49.864;8.656;2023-03-01T06:20:16;17.50;;;11.87;;
5493;SDS011;2769;49.864;8.656;2023-03-01T06:22:44;20.80;;;12.03;;
5493;SDS011;2769;49.864;8.656;2023-03-01T06:25:13;19.33;;;11.97;;
5493;SDS011;2769;49.864;8.656;2023-03-01T06:27:43;18.60;;;12.30;;
5493;SDS011;2769;49.864;8.656;2023-03-01T06:30:13;25.90;;;11.30;;
5493;SDS011;2769;49.864;8.656;2023-03-01T06:32:42;22.87;;;12.87;;
5493;SDS011;2769;49.864;8.656;2023-03-01T06:35:10;22.17;;;12.27;;
5493;SDS011;2769;49.864;8.656;2023-03-01T06:37:39;21.63;;;11.23;;
5493;SDS011;2769;49.864;8.656;2023-03-01T06:40:08;24.53;;;11.77;;
5493;SDS011;2769;49.864;8.656;2023-03-01T06:42:38;23.40;;;12.00;;
5493;SDS011;2769;49.864;8.656;2023-03-01T06:45:07;30.20;;;12.90;;
5493;SDS011;2769;49.864;8.656;2023-03-01T06:47:37;22.67;;;13.10;;
5493;SDS011;2769;49.864;8.656;2023-03-01T06:50:05;19.93;;;12.13;;
5493;SDS011;2769;49.864;8.656;2023-03-01T06:52:36;21.10;;;12.30;;
5493;SDS011;2769;49.864;8.656;2023-03-01T06:55:04;21.10;;;12.33;;
5493;SDS011;2769;49.864;8.656;2023-03-01T06:57:33;23.03;;;12.17;;
5493;SDS011;2769;49.864;8.656;2023-03-01T07:00:00;20.53;;;11.40;;
5493;SDS011;2769;49.864;8.656;2023-03-01T07:02:29;20.57;;;11.87;;
5493;SDS011;2769;49.864;8.656;2023-03-01T07:04:58;22.70;;;11.53;;
5493;SDS011;2769;49.864;8.656;2023-03-01T07:07:26;19.77;;;11.43;;
5493;SDS011;2769;49.864;8.656;2023-03-01T07:09:54;19.30;;;11.27;;
5493;SDS011;2769;49.864;8.656;2023-03-01T07:12:22;17.07;;;11.17;;
5493;SDS011;2769;49.864;8.656;2023-03-01T07:14:50;19.90;;;11.90;;
5493;SDS011;2769;49.864;8.656;2023-03-01T07:17:17;18.30;;;11.53;;
5493;SDS011;2769;49.864;8.656;2023-03-01T07:19:45;21.90;;;12.70;;
5493;SDS011;2769;49.864;8.656;2023-03-01T07:22:14;19.83;;;12.07;;
5493;SDS011;2769;49.864;8.656;2023-03-01T07:24:42;22.60;;;12.77;;
5493;SDS011;2769;49.864;8.656;2023-03-01T07:27:11;20.70;;;11.73;;
5493;SDS011;2769;49.864;8.656;2023-03-01T07:29:39;17.00;;;11.30;;
5493;SDS011;2769;49.864;8.656;2023-03-01T07:32:06;23.47;;;12.23;;
5493;SDS011;2769;49.864;8.656;2023-03-01T07:34:35;17.70;;;11.20;;
5493;SDS011;2769;49.864;8.656;2023-03-01T07:37:04;19.40;;;11.13;;
5493;SDS011;2769;49.864;8.656;2023-03-01T07:39:33;22.10;;;12.50;;
5493;SDS011;2769;49.864;8.656;2023-03-01T07:42:01;19.23;;;12.50;;
5493;SDS011;2769;49.864;8.656;2023-03-01T07:44:29;20.30;;;11.83;;
5493;SDS011;2769;49.864;8.656;2023-03-01T07:46:56;20.47;;;11.57;;
5493;SDS011;2769;49.864;8.656;2023-03-01T07:49:24;20.10;;;12.53;;
5493;SDS011;2769;49.864;8.656;2023-03-01T07:51:53;22.00;;;11.93;;
5493;SDS011;2769;49.864;8.656;2023-03-01T07:54:21;17.70;;;11.10;;
5493;SDS011;2769;49.864;8.656;2023-03-01T07:56:51;19.43;;;11.87;;
5493;SDS011;2769;49.864;8.656;2023-03-01T07:59:18;17.83;;;11.20;;
5493;SDS011;2769;49.864;8.656;2023-03-01T08:01:46;19.20;;;12.07;;
5493;SDS011;2769;49.864;8.656;2023-03-01T08:04:14;19.70;;;11.80;;
5493;SDS011;2769;49.864;8.656;2023-03-01T08:06:42;27.73;;;11.73;;
5493;SDS011;2769;49.864;8.656;2023-03-01T08:09:10;24.53;;;11.40;;
5493;SDS011;2769;49.864;8.656;2023-03-01T08:11:38;27.63;;;13.03;;
5493;SDS011;2769;49.864;8.656;2023-03-01T08:14:07;18.27;;;12.67;;
5493;SDS011;2769;49.864;8.656;2023-03-01T08:16:37;19.83;;;12.03;;
5493;SDS011;2769;49.864;8.656;2023-03-01T08:19:05;16.93;;;12.10;;
5493;SDS011;2769;49.864;8.656;2023-03-01T08:21:33;17.40;;;11.03;;
5493;SDS011;2769;49.864;8.656;2023-03-01T08:24:02;19.77;;;11.37;;
5493;SDS011;2769;49.864;8.656;2023-03-01T08:26:30;24.23;;;11.83;;
5493;SDS011;2769;49.864;8.656;2023-03-01T08:28:59;18.77;;;11.43;;
5493;SDS011;2769;49.864;8.656;2023-03-01T08:31:29;16.17;;;10.77;;
5493;SDS011;2769;49.864;8.656;2023-03-01T08:33:59;19.60;;;11.03;;
5493;SDS011;2769;49.864;8.656;2023-03-01T08:36:29;18.90;;;10.83;;
5493;SDS011;2769;49.864;8.656;2023-03-01T08:38:59;16.87;;;11.20;;
5493;SDS011;2769;49.864;8.656;2023-03-01T08:41:27;19.13;;;11.13;;
5493;SDS011;2769;49.864;8.656;2023-03-01T08:43:55;17.17;;;10.87;;
5493;SDS011;2769;49.864;8.656;2023-03-01T08:46:25;14.60;;;10.40;;
5493;SDS011;2769;49.864;8.656;2023-03-01T08:48:55;19.63;;;11.70;;
5493;SDS011;2769;49.864;8.656;2023-03-01T08:51:23;24.77;;;11.43;;
5493;SDS011;2769;49.864;8.656;2023-03-01T08:53:52;20.60;;;12.00;;
5493;SDS011;2769;49.864;8.656;2023-03-01T08:56:20;21.93;;;11.03;;
5493;SDS011;2769;49.864;8.656;2023-03-01T08:58:48;19.07;;;12.40;;
5493;SDS011;2769;49.864;8.656;2023-03-01T09:01:17;20.67;;;11.60;;
5493;SDS011;2769;49.864;8.656;2023-03-01T09:03:46;19.40;;;11.53;;
5493;SDS011;2769;49.864;8.656;2023-03-01T09:06:16;20.53;;;11.60;;
5493;SDS011;2769;49.864;8.656;2023-03-01T09:08:44;21.00;;;12.20;;
5493;SDS011;2769;49.864;8.656;2023-03-01T09:11:14;19.20;;;12.40;;
5493;SDS011;2769;49.864;8.656;2023-03-01T09:13:43;18.60;;;11.67;;
5493;SDS011;2769;49.864;8.656;2023-03-01T09:16:11;19.07;;;12.27;;
5493;SDS011;2769;49.864;8.656;2023-03-01T09:18:40;19.23;;;11.37;;
5493;SDS011;2769;49.864;8.656;2023-03-01T09:21:09;20.23;;;11.80;;
5493;SDS011;2769;49.864;8.656;2023-03-01T09:23:40;22.67;;;11.53;;
5493;SDS011;2769;49.864;8.656;2023-03-01T09:26:10;17.63;;;11.90;;
5493;SDS011;2769;49.864;8.656;2023-03-01T09:28:39;19.20;;;12.57;;
5493;SDS011;2769;49.864;8.656;2023-03-01T09:31:07;18.90;;;11.57;;
5493;SDS011;2769;49.864;8.656;2023-03-01T09:33:36;19.40;;;12.20;;
5493;SDS011;2769;49.864;8.656;2023-03-01T09:36:04;20.57;;;12.70;;
5493;SDS011;2769;49.864;8.656;2023-03-01T09:38:33;22.33;;;13.20;;
5493;SDS011;2769;49.864;8.656;2023-03-01T09:41:08;20.93;;;13.00;;
5493;SDS011;2769;49.864;8.656;2023-03-01T09:43:39;18.87;;;12.40;;
5493;SDS011;2769;49.864;8.656;2023-03-01T09:46:13;16.60;;;12.50;;
5493;SDS011;2769;49.864;8.656;2023-03-01T09:48:43;17.40;;;12.13;;
5493;SDS011;2769;49.864;8.656;2023-03-01T09:51:15;20.17;;;12.13;;
5493;SDS011;2769;49.864;8.656;2023-03-01T09:53:45;19.13;;;12.70;;
5493;SDS011;2769;49.864;8.656;2023-03-01T09:56:16;19.60;;;12.57;;
5493;SDS011;2769;49.864;8.656;2023-03-01T09:58:48;19.17;;;12.73;;
5493;SDS011;2769;49.864;8.656;2023-03-01T10:01:32;19.70;;;12.40;;
5493;SDS011;2769;49.864;8.656;2023-03-01T10:06:58;19.20;;;12.63;;
5493;SDS011;2769;49.864;8.656;2023-03-01T10:09:46;19.40;;;12.60;;
5493;SDS011;2769;49.864;8.656;2023-03-01T10:12:16;18.43;;;11.97;;
5493;SDS011;2769;49.864;8.656;2023-03-01T10:14:48;22.73;;;12.53;;
5493;SDS011;2769;49.864;8.656;2023-03-01T10:17:24;19.60;;;13.37;;
5493;SDS011;2769;49.864;8.656;2023-03-01T10:19:55;17.60;;;12.43;;
5493;SDS011;2769;49.864;8.656;2023-03-01T10:22:26;18.43;;;13.17;;
5493;SDS011;2769;49.864;8.656;2023-03-01T10:24:56;21.53;;;14.83;;
5493;SDS011;2769;49.864;8.656;2023-03-01T10:27:29;18.37;;;12.77;;
5493;SDS011;2769;49.864;8.656;2023-03-01T10:30:05;18.70;;;13.53;;
5493;SDS011;2769;49.864;8.656;2023-03-01T10:32:38;18.50;;;14.13;;
5493;SDS011;2769;49.864;8.656;2023-03-01T10:35:15;21.07;;;14.57;;
5493;SDS011;2769;49.864;8.656;2023-03-01T10:37:57;21.80;;;13.73;;
5493;SDS011;2769;49.864;8.656;2023-03-01T10:40:26;20.17;;;13.77;;
5493;SDS011;2769;49.864;8.656;2023-03-01T10:42:57;21.33;;;13.80;;
5493;SDS011;2769;49.864;8.656;2023-03-01T10:45:35;18.17;;;13.83;;
5493;SDS011;2769;49.864;8.656;2023-03-01T10:48:11;19.30;;;13.93;;
5493;SDS011;2769;49.864;8.656;2023-03-01T10:50:41;19.20;;;13.80;;
5493;SDS011;2769;49.864;8.656;2023-03-01T10:53:20;22.10;;;14.23;;
5493;SDS011;2769;49.864;8.656;2023-03-01T10:55:58;20.57;;;14.53;;
5493;SDS011;2769;49.864;8.656;2023-03-01T10:58:30;18.47;;;13.87;;
5493;SDS011;2769;49.864;8.656;2023-03-01T11:00:58;16.53;;;12.90;;
5493;SDS011;2769;49.864;8.656;2023-03-01T11:03:28;16.90;;;12.80;;
5493;SDS011;2769;49.864;8.656;2023-03-01T11:05:58;18.10;;;13.60;;
5493;SDS011;2769;49.864;8.656;2023-03-01T11:08:38;18.67;;;13.37;;
5493;SDS011;2769;49.864;8.656;2023-03-01T11:13:55;17.83;;;13.20;;
5493;SDS011;2769;49.864;8.656;2023-03-01T11:16:25;19.27;;;13.37;;
5493;SDS011;2769;49.864;8.656;2023-03-01T11:18:56;22.50;;;13.30;;
5493;SDS011;2769;49.864;8.656;2023-03-01T11:21:25;17.70;;;12.70;;
5493;SDS011;2769;49.864;8.656;2023-03-01T11:23:55;20.33;;;12.30;;
5493;SDS011;2769;49.864;8.656;2023-03-01T11:26:24;13.50;;;11.20;;
5493;SDS011;2769;49.864;8.656;2023-03-01T11:28:55;16.70;;;12.33;;
5493;SDS011;2769;49.864;8.656;2023-03-01T11:31:26;13.27;;;11.73;;
5493;SDS011;2769;49.864;8.656;2023-03-01T11:33:55;14.67;;;11.67;;
5493;SDS011;2769;49.864;8.656;2023-03-01T11:36:27;16.57;;;11.60;;
5493;SDS011;2769;49.864;8.656;2023-03-01T11:38:58;14.20;;;10.50;;
5493;SDS011;2769;49.864;8.656;2023-03-01T11:41:31;13.37;;;10.60;;
5493;SDS011;2769;49.864;8.656;2023-03-01T11:44:03;14.73;;;10.87;;
5493;SDS011;2769;49.864;8.656;2023-03-01T11:49:41;15.10;;;10.53;;
5493;SDS011;2769;49.864;8.656;2023-03-01T11:52:24;16.20;;;10.27;;
5493;SDS011;2769;49.864;8.656;2023-03-01T11:55:03;14.40;;;10.20;;
5493;SDS011;2769;49.864;8.656;2023-03-01T11:57:43;14.93;;;9.90;;
5493;SDS011;2769;49.864;8.656;2023-03-01T12:00:24;12.47;;;10.00;;
5493;SDS011;2769;49.864;8.656;2023-03-01T12:03:02;15.83;;;11.70;;
5493;SDS011;2769;49.864;8.656;2023-03-01T12:05:52;13.10;;;9.30;;
5493;SDS011;2769;49.864;8.656;2023-03-01T12:08:36;14.50;;;11.00;;
5493;SDS011;2769;49.864;8.656;2023-03-01T12:11:09;14.43;;;11.40;;
5493;SDS011;2769;49.864;8.656;2023-03-01T12:13:56;15.73;;;11.73;;
5493;SDS011;2769;49.864;8.656;2023-03-01T12:16:34;15.97;;;11.17;;
5493;SDS011;2769;49.864;8.656;2023-03-01T12:19:16;15.77;;;11.80;;
5493;SDS011;2769;49.864;8.656;2023-03-01T12:21:59;15.00;;;11.40;;
5493;SDS011;2769;49.864;8.656;2023-03-01T12:24:36;15.77;;;11.43;;
5493;SDS011;2769;49.864;8.656;2023-03-01T12:27:17;16.43;;;11.63;;
5493;SDS011;2769;49.864;8.656;2023-03-01T12:30:00;15.63;;;11.50;;
5493;SDS011;2769;49.864;8.656;2023-03-01T12:32:36;14.63;;;10.67;;
5493;SDS011;2769;49.864;8.656;2023-03-01T12:35:12;12.27;;;9.70;;
5493;SDS011;2769;49.864;8.656;2023-03-01T12:37:54;21.73;;;11.30;;
5493;SDS011;2769;49.864;8.656;2023-03-01T12:40:32;15.10;;;11.23;;
5493;SDS011;2769;49.864;8.656;2023-03-01T12:43:08;12.73;;;10.50;;
5493;SDS011;2769;49.864;8.656;2023-03-01T12:45:47;15.00;;;10.17;;
5493;SDS011;2769;49.864;8.656;2023-03-01T12:48:23;14.07;;;10.23;;
5493;SDS011;2769;49.864;8.656;2023-03-01T12:50:57;12.33;;;10.03;;
5493;SDS011;2769;49.864;8.656;2023-03-01T12:53:28;12.33;;;10.17;;
5493;SDS011;2769;49.864;8.656;2023-03-01T12:55:58;12.77;;;10.10;;
5493;SDS011;2769;49.864;8.656;2023-03-01T12:58:28;11.87;;;9.87;;
5493;SDS011;2769;49.864;8.656;2023-03-01T13:01:23;14.97;;;10.50;;
5493;SDS011;2769;49.864;8.656;2023-03-01T13:04:03;17.20;;;9.47;;
5493;SDS011;2769;49.864;8.656;2023-03-01T13:06:39;11.63;;;8.97;;
5493;SDS011;2769;49.864;8.656;2023-03-01T13:09:14;12.60;;;9.40;;
5493;SDS011;2769;49.864;8.656;2023-03-01T13:11:46;12.47;;;9.60;;
5493;SDS011;2769;49.864;8.656;2023-03-01T13:17:32;13.20;;;9.60;;
5493;SDS011;2769;49.864;8.656;2023-03-01T13:20:11;9.87;;;8.70;;
5493;SDS011;2769;49.864;8.656;2023-03-01T13:22:41;10.93;;;9.10;;
5493;SDS011;2769;49.864;8.656;2023-03-01T13:25:20;10.33;;;8.90;;
5493;SDS011;2769;49.864;8.656;2023-03-01T13:31:02;14.77;;;9.80;;
5493;SDS011;2769;49.864;8.656;2023-03-01T13:33:42;11.70;;;9.80;;
5493;SDS011;2769;49.864;8.656;2023-03-01T13:39:27;11.50;;;9.63;;
5493;SDS011;2769;49.864;8.656;2023-03-01T13:41:58;11.07;;;9.30;;
5493;SDS011;2769;49.864;8.656;2023-03-01T13:44:29;10.90;;;9.50;;
5493;SDS011;2769;49.864;8.656;2023-03-01T13:46:59;11.57;;;10.03;;
5493;SDS011;2769;49.864;8.656;2023-03-01T13:49:33;10.30;;;9.20;;
5493;SDS011;2769;49.864;8.656;2023-03-01T13:52:32;11.10;;;8.63;;
5493;SDS011;2769;49.864;8.656;2023-03-01T13:55:03;11.30;;;9.00;;
5493;SDS011;2769;49.864;8.656;2023-03-01T13:57:34;11.70;;;8.90;;
5493;SDS011;2769;49.864;8.656;2023-03-01T14:00:05;13.80;;;9.60;;
5493;SDS011;2769;49.864;8.656;2023-03-01T14:02:34;10.97;;;9.17;;
5493;SDS011;2769;49.864;8.656;2023-03-01T14:05:03;10.30;;;8.70;;
5493;SDS011;2769;49.864;8.656;2023-03-01T14:07:32;12.87;;;9.13;;
5493;SDS011;2769;49.864;8.656;2023-03-01T14:10:04;9.80;;;8.80;;
5493;SDS011;2769;49.864;8.656;2023-03-01T14:12:37;9.40;;;8.10;;
5493;SDS011;2769;49.864;8.656;2023-03-01T14:15:08;11.17;;;8.93;;
5493;SDS011;2769;49.864;8.656;2023-03-01T14:17:46;10.83;;;8.60;;
5493;SDS011;2769;49.864;8.656;2023-03-01T14:20:18;11.60;;;9.37;;
5493;SDS011;2769;49.864;8.656;2023-03-01T14:22:49;9.37;;;8.00;;
5493;SDS011;2769;49.864;8.656;2023-03-01T14:25:23;12.73;;;9.20;;
5493;SDS011;2769;49.864;8.656;2023-03-01T14:27:57;16.00;;;9.00;;
5493;SDS011;2769;49.864;8.656;2023-03-01T14:30:31;10.50;;;8.60;;
5493;SDS011;2769;49.864;8.656;2023-03-01T14:33:02;11.33;;;8.10;;
5493;SDS011;2769;49.864;8.656;2023-03-01T14:35:32;10.77;;;9.10;;
5493;SDS011;2769;49.864;8.656;2023-03-01T14:38:03;13.30;;;9.00;;
5493;SDS011;2769;49.864;8.656;2023-03-01T14:40:32;9.77;;;8.77;;
5493;SDS011;2769;49.864;8.656;2023-03-01T14:43:01;9.80;;;8.33;;
5493;SDS011;2769;49.864;8.656;2023-03-01T14:45:31;8.93;;;8.03;;
5493;SDS011;2769;49.864;8.656;2023-03-01T14:47:59;10.63;;;8.87;;
5493;SDS011;2769;49.864;8.656;2023-03-01T14:50:29;9.30;;;7.90;;
5493;SDS011;2769;49.864;8.656;2023-03-01T14:52:58;10.23;;;8.27;;
5493;SDS011;2769;49.864;8.656;2023-03-01T14:55:30;11.23;;;8.50;;
5493;SDS011;2769;49.864;8.656;2023-03-01T14:58:02;10.43;;;7.90;;
5493;SDS011;2769;49.864;8.656;2023-03-01T15:00:32;10.57;;;8.27;;
5493;SDS011;2769;49.864;8.656;2023-03-01T15:03:02;11.07;;;9.30;;
5493;SDS011;2769;49.864;8.656;2023-03-01T15:05:36;10.67;;;9.13;;
5493;SDS011;2769;49.864;8.656;2023-03-01T15:08:04;15.20;;;9.13;;
5493;SDS011;2769;49.864;8.656;2023-03-01T15:10:34;10.90;;;9.70;;
5493;SDS011;2769;49.864;8.656;2023-03-01T15:13:10;11.83;;;8.80;;
5493;SDS011;2769;49.864;8.656;2023-03-01T15:15:38;13.60;;;9.87;;
5493;SDS011;2769;49.864;8.656;2023-03-01T15:18:16;15.27;;;9.30;;
5493;SDS011;2769;49.864;8.656;2023-03-01T15:20:48;16.40;;;9.60;;
5493;SDS011;2769;49.864;8.656;2023-03-01T15:23:21;13.10;;;9.77;;
5493;SDS011;2769;49.864;8.656;2023-03-01T15:25:53;11.63;;;9.30;;
5493;SDS011;2769;49.864;8.656;2023-03-01T15:28:24;12.17;;;9.40;;
5493;SDS011;2769;49.864;8.656;2023-03-01T15:30:57;14.07;;;9.83;;
5493;SDS011;2769;49.864;8.656;2023-03-01T15:33:32;12.40;;;9.87;;